Time;durP1;ratioP1;P1;durP2;ratioP2;P2;SDS_P1;SDS_P2;PMS_P1;PMS_P2;Temp;Humidity;BMP_temperature;BMP_pressure;BME280_temperature;BME280_humidity;BME280_pressure;Samples;Min_cycle;Max_cycle;Signal;HPM_P1;HPM_P2
2023/02/20 00:01:57;;;;;;;;;;;;;;;;;;5085586;28;20066;-47
2023/02/20 00:04:23;;;;;;;;;;;;;;;;;;5084667;28;19912;-47
2023/02/20 00:06:49;;;;;;;;;;;;;;;;;;5075329;28;19908;-46
2023/02/20 00:09:15;;;;;;;;;;;;;;;;;;5065060;28;20362;-45
2023/02/20 00:11:41;;;;;;;;;;;;;;;;;;5065570;28;19908;-45
2023/02/20 00:14:07;;;;;;;;;;;;;;;;;;5064621;28;20401;-48
2023/02/20 00:16:33;;;;;;;;;;;;;;;;;;5070193;28;19995;-46
2023/02/20 00:18:59;;;;;;;;;;;;;;;;;;5084785;28;20457;-46
2023/02/20 00:21:26;;;;;;;;;;;;;;;;;;5085021;28;19912;-46
2023/02/20 00:23:53;;;;;;;;;;;;;;;;;;5085207;28;19904;-45
2023/02/20 00:26:20;;;;;;;;;;;;;;;;;;5084980;28;19919;-46
2023/02/20 00:28:46;;;;;;;;;;;;;;;;;;5085113;28;19904;-46
2023/02/20 00:31:13;;;;;;;;;;;;;;;;;;5084840;28;19957;-46
2023/02/20 00:33:39;;;;;;;;;;;;;;;;;;5084886;28;19914;-45
2023/02/20 00:36:05;;;;;;;;;;;;;;;;;;5084161;28;19912;-46
2023/02/20 00:38:31;;;;;;;;;;;;;;;;;;5084720;28;19904;-47
2023/02/20 00:40:57;;;;;;;;;;;;;;;;;;5084835;28;19994;-47
2023/02/20 00:43:23;;;;;;;;;;;;;;;;;;5084367;28;19947;-47
2023/02/20 00:45:49;;;;;;;;;;;;;;;;;;5085100;28;19908;-45
2023/02/20 00:48:15;;;;;;;;;;;;;;;;;;5084111;28;19904;-46
2023/02/20 00:50:41;;;;;;;;;;;;;;;;;;5084947;28;20302;-45
2023/02/20 00:53:07;;;;;;;;;;;;;;;;;;5084537;28;19908;-48
2023/02/20 00:55:33;;;;;;;;;;;;;;;;;;5066388;28;20599;-45
2023/02/20 00:57:58;;;;;;;;;;;;;;;;;;5066464;28;19933;-46
2023/02/20 01:00:25;;;;;;;;;;;;;;;;;;5065801;28;19912;-45
2023/02/20 01:02:51;;;;;;;;;;;;;;;;;;5084474;28;19911;-45
2023/02/20 06:15:20;;;;;;;;;;;;;;;;;;5087418;28;20010;-45
2023/02/20 06:17:46;;;;;;;;;;;;;;;;;;5090355;28;20035;-45
2023/02/20 06:20:14;;;;;;;;;;;;;;;;;;5090191;28;19908;-46
2023/02/20 06:22:39;;;;;;;;;;;;;;;;;;5089878;28;19904;-46
2023/02/20 06:25:05;;;;;;;;;;;;;;;;;;5064136;28;19915;-44
2023/02/20 06:27:31;;;;;;;;;;;;;;;;;;5065186;28;19935;-45
2023/02/20 06:29:57;;;;;;;;;;;;;;;;;;5069843;28;19951;-45
2023/02/20 06:32:23;;;;;;;;;;;;;;;;;;5069533;28;19912;-45
2023/02/20 06:34:49;;;;;;;;;;;;;;;;;;5069816;28;19905;-45
2023/02/20 06:37:16;;;;;;;;;;;;;;;;;;5069692;28;20019;-48
2023/02/20 06:39:45;;;;;;;;;;;;;;;;;;5069718;28;19909;-46
2023/02/20 06:42:11;;;;;;;;;;;;;;;;;;5069104;28;20299;-46
2023/02/20 06:44:37;;;;;;;;;;;;;;;;;;5069296;28;19966;-46
2023/02/20 06:47:07;;;;;;;;;;;;;;;;;;5069021;28;19912;-46
2023/02/20 06:49:33;;;;;;;;;;;;;;;;;;5069622;28;20322;-46
2023/02/20 06:51:59;;;;;;;;;;;;;;;;;;5069416;28;19911;-46
2023/02/20 06:54:25;;;;;;;;;;;;;;;;;;5069797;28;19977;-48
2023/02/20 06:56:51;;;;;;;;;;;;;;;;;;5069070;28;19908;-45
2023/02/20 06:59:17;;;;;;;;;;;;;;;;;;5069057;28;19944;-46
2023/02/20 07:01:43;;;;;;;;;;;;;;;;;;5068009;28;19955;-44
2023/02/20 07:04:10;;;;;;;;;;;;;;;;;;5050995;28;20368;-44
2023/02/20 07:06:36;;;;;;;;;;;;;;;;;;5069081;28;19904;-44
2023/02/20 07:09:03;;;;;;;;;;;;;;;;;;5069453;28;19951;-45
2023/02/20 07:11:29;;;;;;;;;;;;;;;;;;5069208;28;19904;-46
2023/02/20 07:13:57;;;;;;;;;;;;;;;;;;5068931;28;19909;-46
2023/02/20 07:16:23;;;;;;;;;;;;;;;;;;5074813;28;19916;-44
2023/02/20 07:18:49;;;;;;;;;;;;;;;;;;5088959;28;19915;-44
2023/02/20 07:21:15;;;;;;;;;;;;;;;;;;5088655;28;19916;-45
2023/02/20 07:23:41;;;;;;;;;;;;;;;;;;5090196;28;19910;-46
2023/02/20 07:26:07;;;;;;;;;;;;;;;;;;5090499;28;19912;-44
2023/02/20 07:28:33;;;;;;;;;;;;;;;;;;5090522;28;19998;-45
2023/02/20 07:30:59;;;;;;;;;;;;;;;;;;5090734;28;19904;-46
2023/02/20 07:33:25;;;;;;;;;;;;;;;;;;5090150;28;19985;-44
2023/02/20 07:35:51;;;;;;;;;;;;;;;;;;5089711;28;19908;-46
2023/02/20 07:38:17;;;;;;;;;;;;;;;;;;5090159;28;19974;-46
2023/02/20 07:40:43;;;;;;;;;;;;;;;;;;5089393;28;19916;-44
2023/02/20 07:43:09;;;;;;;;;;;;;;;;;;5088254;28;19908;-45
2023/02/20 07:45:35;;;;;;;;;;;;;;;;;;5088580;28;19956;-45
2023/02/20 07:48:00;;;;;;;;;;;;;;;;;;5089061;28;19957;-47
2023/02/20 07:50:26;;;;;;;;;;;;;;;;;;5087823;28;19953;-45
2023/02/20 07:52:52;;;;;;;;;;;;;;;;;;5089534;28;19943;-45
2023/02/20 07:55:19;;;;;;;;;;;;;;;;;;5088952;28;19911;-44
2023/02/20 07:57:45;;;;;;;;;;;;;;;;;;5088408;28;19914;-45
2023/02/20 08:00:11;;;;;;;;;;;;;;;;;;5089673;28;19908;-45
2023/02/20 08:02:37;;;;;;;;;;;;;;;;;;5089210;28;19977;-45
2023/02/20 08:05:03;;;;;;;;;;;;;;;;;;5088787;28;19912;-45
2023/02/20 08:07:29;;;;;;;;;;;;;;;;;;5089109;28;19981;-44
2023/02/20 08:09:55;;;;;;;;;;;;;;;;;;5089256;28;19998;-45
2023/02/20 08:12:21;;;;;;;;;;;;;;;;;;5071173;28;19908;-45
2023/02/20 08:14:47;;;;;;;;;;;;;;;;;;5087400;28;20430;-46
2023/02/20 08:17:13;;;;;;;;;;;;;;;;;;5087520;28;19916;-46
2023/02/20 08:19:39;;;;;;;;;;;;;;;;;;5084851;28;20023;-45
2023/02/20 08:22:05;;;;;;;;;;;;;;;;;;5076292;28;19969;-45
2023/02/20 08:24:30;;;;;;;;;;;;;;;;;;5084416;28;19907;-44
2023/02/20 08:26:56;;;;;;;;;;;;;;;;;;5086497;28;19908;-46
2023/02/20 08:29:22;;;;;;;;;;;;;;;;;;5088129;28;19954;-45
2023/02/20 08:31:48;;;;;;;;;;;;;;;;;;5088232;28;19908;-45
2023/02/20 08:34:14;;;;;;;;;;;;;;;;;;5087520;28;19934;-45
2023/02/20 08:36:40;;;;;;;;;;;;;;;;;;5085078;28;19912;-46
2023/02/20 08:39:06;;;;;;;;;;;;;;;;;;5088081;28;19922;-45
2023/02/20 08:41:32;;;;;;;;;;;;;;;;;;5085176;28;19912;-46
2023/02/20 08:43:58;;;;;;;;;;;;;;;;;;5067299;28;21170;-44
2023/02/20 08:46:24;;;;;;;;;;;;;;;;;;5087238;28;20034;-45
2023/02/20 08:48:50;;;;;;;;;;;;;;;;;;5086807;28;19908;-45
2023/02/20 08:51:16;;;;;;;;;;;;;;;;;;5087053;28;19904;-44
2023/02/20 08:53:41;;;;;;;;;;;;;;;;;;5087485;28;20296;-45
2023/02/20 08:56:08;;;;;;;;;;;;;;;;;;5084413;28;19912;-49
2023/02/20 08:58:34;;;;;;;;;;;;;;;;;;5086374;28;19915;-48
2023/02/20 09:01:00;;;;;;;;;;;;;;;;;;5086817;28;20090;-46
2023/02/20 09:03:26;;;;;;;;;;;;;;;;;;5086805;28;19912;-46
2023/02/20 09:05:53;;;;;;;;;;;;;;;;;;5086828;28;19904;-48
2023/02/20 09:08:18;;;;;;;;;;;;;;;;;;5086968;28;20329;-46
2023/02/20 09:10:45;;;;;;;;;;;;;;;;;;5086900;28;19911;-45
2023/02/20 09:13:11;;;;;;;;;;;;;;;;;;5087155;28;19919;-44
2023/02/20 09:15:38;;;;;;;;;;;;;;;;;;5085495;28;19908;-45
2023/02/20 09:18:05;;;;;;;;;;;;;;;;;;5078997;28;19916;-46
2023/02/20 09:20:31;;;;;;;;;;;;;;;;;;5076666;28;19915;-47
2023/02/20 09:22:57;;;;;;;;;;;;;;;;;;5087900;28;19990;-45
2023/02/20 09:25:23;;;;;;;;;;;;;;;;;;5089527;28;19943;-45
2023/02/20 09:27:49;;;;;;;;;;;;;;;;;;5091385;28;19908;-46
2023/02/20 09:30:18;;;;;;;;;;;;;;;;;;5091597;28;19959;-45
2023/02/20 09:32:46;;;;;;;;;;;;;;;;;;5091285;28;20445;-47
2023/02/20 09:35:11;;;;;;;;;;;;;;;;;;5090549;28;19959;-44
2023/02/20 09:37:37;;;;;;;;;;;;;;;;;;5085286;28;19958;-44
2023/02/20 09:40:03;;;;;;;;;;;;;;;;;;5091846;28;19919;-45
2023/02/20 09:42:29;;;;;;;;;;;;;;;;;;5091314;28;19956;-45
2023/02/20 09:44:55;;;;;;;;;;;;;;;;;;5091367;28;19908;-45
2023/02/20 09:47:21;;;;;;;;;;;;;;;;;;5090736;28;19997;-46
2023/02/20 09:49:47;;;;;;;;;;;;;;;;;;5090358;28;19908;-45
2023/02/20 09:52:13;;;;;;;;;;;;;;;;;;5090610;28;19912;-44
2023/02/20 09:54:39;;;;;;;;;;;;;;;;;;5090821;28;19915;-44
2023/02/20 09:57:05;;;;;;;;;;;;;;;;;;5079542;28;19967;-46
2023/02/20 09:59:30;;;;;;;;;;;;;;;;;;5069930;28;19911;-45
2023/02/20 10:01:57;;;;;;;;;;;;;;;;;;5069755;28;20299;-46
2023/02/20 10:04:23;;;;;;;;;;;;;;;;;;5069723;28;19909;-46
2023/02/20 10:06:49;;;;;;;;;;;;;;;;;;5069717;28;19905;-46
2023/02/20 10:09:16;;;;;;;;;;;;;;;;;;5070169;28;19904;-45
2023/02/20 10:11:43;;;;;;;;;;;;;;;;;;5069130;28;19974;-44
2023/02/20 10:14:09;;;;;;;;;;;;;;;;;;5085027;28;19974;-47
2023/02/20 10:16:35;;;;;;;;;;;;;;;;;;5069310;28;19955;-45
2023/02/20 10:19:00;;;;;;;;;;;;;;;;;;5069468;28;20070;-45
2023/02/20 10:21:26;;;;;;;;;;;;;;;;;;5069635;28;19985;-46
2023/02/20 10:23:52;;;;;;;;;;;;;;;;;;5069991;28;19908;-46
2023/02/20 10:26:18;;;;;;;;;;;;;;;;;;5069434;28;19908;-46
2023/02/20 10:28:44;;;;;;;;;;;;;;;;;;5069135;28;19947;-46
2023/02/20 10:31:10;;;;;;;;;;;;;;;;;;5073420;28;19994;-46
2023/02/20 10:33:36;;;;;;;;;;;;;;;;;;5089103;28;19908;-45
2023/02/20 10:36:02;;;;;;;;;;;;;;;;;;5085911;28;19929;-48
2023/02/20 10:38:28;;;;;;;;;;;;;;;;;;5084271;28;19934;-45
2023/02/20 10:40:53;;;;;;;;;;;;;;;;;;5090248;28;19907;-45
2023/02/20 10:43:20;;;;;;;;;;;;;;;;;;5089087;28;19947;-45
2023/02/20 10:45:46;;;;;;;;;;;;;;;;;;5089189;28;19908;-47
2023/02/20 10:48:15;;;;;;;;;;;;;;;;;;5089191;28;19915;-46
2023/02/20 10:50:42;;;;;;;;;;;;;;;;;;5089345;28;20302;-46
2023/02/20 10:53:08;;;;;;;;;;;;;;;;;;5088979;28;19943;-45
2023/02/20 10:55:35;;;;;;;;;;;;;;;;;;5089087;28;19912;-45
2023/02/20 10:58:02;;;;;;;;;;;;;;;;;;5088635;28;19904;-45
2023/02/20 11:00:31;;;;;;;;;;;;;;;;;;5089568;28;19916;-45
2023/02/20 11:02:57;;;;;;;;;;;;;;;;;;5089395;28;19908;-46
2023/02/20 11:05:23;;;;;;;;;;;;;;;;;;5090050;28;20399;-46
2023/02/20 11:07:50;;;;;;;;;;;;;;;;;;5089635;28;19939;-46
2023/02/20 11:10:15;;;;;;;;;;;;;;;;;;5088563;28;19908;-46
2023/02/20 11:12:41;;;;;;;;;;;;;;;;;;5088535;28;20377;-46
2023/02/20 11:15:07;;;;;;;;;;;;;;;;;;5088619;28;19911;-45
2023/02/20 11:17:33;;;;;;;;;;;;;;;;;;5070244;28;19922;-45
2023/02/20 11:20:00;;;;;;;;;;;;;;;;;;5088371;28;19923;-46
2023/02/20 11:22:26;;;;;;;;;;;;;;;;;;5090528;28;19943;-46
2023/02/20 11:24:52;;;;;;;;;;;;;;;;;;5089091;28;19951;-46
2023/02/20 11:27:18;;;;;;;;;;;;;;;;;;5089637;28;19908;-46
2023/02/20 11:29:43;;;;;;;;;;;;;;;;;;5089393;28;19931;-45
2023/02/20 11:32:09;;;;;;;;;;;;;;;;;;5089240;28;19908;-46
2023/02/20 11:34:35;;;;;;;;;;;;;;;;;;5089325;28;19904;-45
2023/02/20 11:37:01;;;;;;;;;;;;;;;;;;5089001;28;20023;-44
2023/02/20 11:39:27;;;;;;;;;;;;;;;;;;5087457;28;19911;-47
2023/02/20 11:41:53;;;;;;;;;;;;;;;;;;5089352;28;19915;-45
2023/02/20 11:44:19;;;;;;;;;;;;;;;;;;5089267;28;20016;-45
2023/02/20 11:46:46;;;;;;;;;;;;;;;;;;5088938;28;20004;-47
2023/02/20 11:49:12;;;;;;;;;;;;;;;;;;5089076;28;19949;-45
2023/02/20 11:51:38;;;;;;;;;;;;;;;;;;5089089;28;19912;-48
2023/02/20 11:54:04;;;;;;;;;;;;;;;;;;5088750;28;19922;-46
2023/02/20 11:56:30;;;;;;;;;;;;;;;;;;5088621;28;19990;-49
2023/02/20 11:58:56;;;;;;;;;;;;;;;;;;5089723;28;20053;-47
2023/02/20 12:01:21;;;;;;;;;;;;;;;;;;5089520;28;19912;-49
2023/02/20 12:03:47;;;;;;;;;;;;;;;;;;5087817;28;19920;-48
2023/02/20 12:06:13;;;;;;;;;;;;;;;;;;5088866;28;19931;-47
2023/02/20 12:08:39;;;;;;;;;;;;;;;;;;5088146;28;19911;-45
2023/02/20 12:11:05;;;;;;;;;;;;;;;;;;5097679;28;19912;-47
2023/02/20 12:13:31;;;;;;;;;;;;;;;;;;5086372;28;20268;-45
2023/02/20 12:15:57;;;;;;;;;;;;;;;;;;5081023;28;19999;-45
2023/02/20 12:18:23;;;;;;;;;;;;;;;;;;5086845;28;20330;-47
2023/02/20 12:20:48;;;;;;;;;;;;;;;;;;5086485;28;19969;-45
2023/02/20 12:23:14;;;;;;;;;;;;;;;;;;5086614;28;19965;-47
2023/02/20 12:25:40;;;;;;;;;;;;;;;;;;5087113;28;19908;-46
2023/02/20 12:28:06;;;;;;;;;;;;;;;;;;5087668;28;20377;-46
2023/02/20 12:30:32;;;;;;;;;;;;;;;;;;5086113;28;19908;-45
2023/02/20 12:32:59;;;;;;;;;;;;;;;;;;5085901;28;19918;-46
2023/02/20 12:35:25;;;;;;;;;;;;;;;;;;5085606;28;20375;-47
2023/02/20 12:37:51;;;;;;;;;;;;;;;;;;5085875;28;19961;-48
2023/02/20 12:40:17;;;;;;;;;;;;;;;;;;5085820;28;19908;-48
2023/02/20 12:42:43;;;;;;;;;;;;;;;;;;5085677;28;20065;-46
2023/02/20 12:45:10;;;;;;;;;;;;;;;;;;5086560;28;19939;-46
2023/02/20 12:47:35;;;;;;;;;;;;;;;;;;5086363;28;19952;-48
2023/02/20 12:50:01;;;;;;;;;;;;;;;;;;5086152;28;19939;-46
2023/02/20 12:52:30;;;;;;;;;;;;;;;;;;5085814;28;20431;-46
2023/02/20 12:54:56;;;;;;;;;;;;;;;;;;5086300;28;20006;-46
2023/02/20 12:57:22;;;;;;;;;;;;;;;;;;5085610;28;19994;-47
2023/02/20 12:59:48;;;;;;;;;;;;;;;;;;5084762;28;19954;-46
2023/02/20 13:02:13;;;;;;;;;;;;;;;;;;5085729;28;19908;-45
2023/02/20 13:04:39;;;;;;;;;;;;;;;;;;5085626;28;19908;-47
2023/02/20 13:07:05;;;;;;;;;;;;;;;;;;5086331;28;19978;-48
2023/02/20 13:09:32;;;;;;;;;;;;;;;;;;5085862;28;19956;-45
2023/02/20 13:11:58;;;;;;;;;;;;;;;;;;5085287;28;20041;-46
2023/02/20 13:14:24;;;;;;;;;;;;;;;;;;5085749;28;20376;-45
2023/02/20 13:16:50;;;;;;;;;;;;;;;;;;5085485;28;20073;-45
2023/02/20 13:19:16;;;;;;;;;;;;;;;;;;5085564;28;19911;-47
2023/02/20 13:21:43;;;;;;;;;;;;;;;;;;5085535;28;19911;-48
2023/02/20 13:24:08;;;;;;;;;;;;;;;;;;5068102;28;19904;-46
2023/02/20 13:26:34;;;;;;;;;;;;;;;;;;5085590;28;20381;-46
2023/02/20 13:29:00;;;;;;;;;;;;;;;;;;5085583;28;19961;-48
2023/02/20 13:31:26;;;;;;;;;;;;;;;;;;5085478;28;19935;-45
2023/02/20 13:33:53;;;;;;;;;;;;;;;;;;5085418;28;19994;-46
2023/02/20 13:36:19;;;;;;;;;;;;;;;;;;5085472;28;19908;-45
2023/02/20 13:38:45;;;;;;;;;;;;;;;;;;5085322;28;19908;-46
2023/02/20 13:41:11;;;;;;;;;;;;;;;;;;5085252;28;19908;-46
2023/02/20 13:43:37;;;;;;;;;;;;;;;;;;5085951;28;20387;-46
2023/02/20 13:46:06;;;;;;;;;;;;;;;;;;5085533;28;20067;-48
2023/02/20 13:48:33;;;;;;;;;;;;;;;;;;5085354;28;19904;-45
2023/02/20 13:50:58;;;;;;;;;;;;;;;;;;5085400;28;20522;-49
2023/02/20 13:53:25;;;;;;;;;;;;;;;;;;5085221;28;20394;-45
2023/02/20 13:55:52;;;;;;;;;;;;;;;;;;5084759;28;20313;-46
2023/02/20 13:58:19;;;;;;;;;;;;;;;;;;5085318;28;19904;-46
2023/02/20 14:00:45;;;;;;;;;;;;;;;;;;5085252;28;20007;-47
2023/02/20 14:03:11;;;;;;;;;;;;;;;;;;5067102;28;19991;-46
2023/02/20 14:05:37;;;;;;;;;;;;;;;;;;5086247;28;19963;-47
2023/02/20 14:08:03;;;;;;;;;;;;;;;;;;5085093;28;19956;-46
2023/02/20 14:10:29;;;;;;;;;;;;;;;;;;5085598;28;19904;-47
2023/02/20 14:12:54;;;;;;;;;;;;;;;;;;5088540;28;19908;-46
2023/02/20 14:15:20;;;;;;;;;;;;;;;;;;5088438;28;19908;-47
2023/02/20 14:17:46;;;;;;;;;;;;;;;;;;5087471;28;19919;-47
2023/02/20 14:20:12;;;;;;;;;;;;;;;;;;5088821;28;19908;-46
2023/02/20 14:22:38;;;;;;;;;;;;;;;;;;5088310;28;19915;-48
2023/02/20 14:25:04;;;;;;;;;;;;;;;;;;5101343;28;20003;-45
2023/02/20 14:27:30;;;;;;;;;;;;;;;;;;5089703;28;20503;-46
2023/02/20 14:29:56;;;;;;;;;;;;;;;;;;5089718;28;20383;-46
2023/02/20 14:32:22;;;;;;;;;;;;;;;;;;5089694;28;19911;-47
2023/02/20 14:34:48;;;;;;;;;;;;;;;;;;5088331;28;20053;-48
2023/02/20 14:37:14;;;;;;;;;;;;;;;;;;5085110;28;19908;-45
2023/02/20 14:39:40;;;;;;;;;;;;;;;;;;5086996;28;20473;-46
2023/02/20 14:42:06;;;;;;;;;;;;;;;;;;5087316;28;19915;-47
2023/02/20 14:44:32;;;;;;;;;;;;;;;;;;5087356;28;19904;-46
2023/02/20 14:46:59;;;;;;;;;;;;;;;;;;5086973;28;20006;-46
2023/02/20 14:49:25;;;;;;;;;;;;;;;;;;5068327;28;19955;-46
2023/02/20 14:51:51;;;;;;;;;;;;;;;;;;5086298;28;19990;-47
2023/02/20 14:54:17;;;;;;;;;;;;;;;;;;5086394;28;19919;-46
2023/02/20 14:56:44;;;;;;;;;;;;;;;;;;5086142;28;20315;-46
2023/02/20 14:59:10;;;;;;;;;;;;;;;;;;5068148;28;19908;-46
2023/02/20 15:01:38;;;;;;;;;;;;;;;;;;5068670;28;20011;-46
2023/02/20 15:04:05;;;;;;;;;;;;;;;;;;5086884;28;20367;-48
2023/02/20 15:06:31;;;;;;;;;;;;;;;;;;5086575;28;20367;-47
2023/02/20 15:08:57;;;;;;;;;;;;;;;;;;5067779;28;19908;-46
2023/02/20 15:11:23;;;;;;;;;;;;;;;;;;5086667;28;19931;-46
2023/02/20 15:13:49;;;;;;;;;;;;;;;;;;5068066;28;19955;-47
2023/02/20 15:16:16;;;;;;;;;;;;;;;;;;5086366;28;19912;-48
2023/02/20 15:18:44;;;;;;;5.30;1.70;;;;;;;;;;5076901;28;20329;-46
2023/02/20 15:21:12;;;;;;;1.52;1.30;;;;;;;;;;5065499;28;20036;-46
2023/02/20 15:23:39;;;;;;;1.63;1.30;;;;;;;;;;5064594;28;20032;-47
2023/02/20 15:26:24;;;;;;;1.38;1.10;;;;;;;;;;5066273;28;20451;-46
2023/02/20 15:29:09;;;;;;;1.42;1.20;;;;;;;;;;5045346;28;20028;-46
2023/02/20 15:31:35;;;;;;;1.10;1.00;;;;;;;;;;5028409;28;20122;-47
2023/02/20 15:34:01;;;;;;;1.25;1.02;;;;;;;;;;5061572;28;20062;-48
2023/02/20 15:36:27;;;;;;;1.85;1.08;;;;;;;;;;5067121;28;20129;-46
2023/02/20 15:38:54;;;;;;;1.55;0.93;;;;;;;;;;5066057;28;20020;-46
2023/02/20 15:41:20;;;;;;;1.20;1.10;;;;;;;;;;5066976;28;20108;-46
2023/02/20 15:43:47;;;;;;;2.30;1.48;;;;;;;;;;5045024;28;20467;-46
2023/02/20 15:46:13;;;;;;;2.10;1.00;;;;;;;;;;5045784;28;20091;-48
2023/02/20 15:48:39;;;;;;;1.35;1.10;;;;;;;;;;5050928;28;20086;-48
2023/02/20 15:51:08;;;;;;;1.50;1.20;;;;;;;;;;5080291;28;20040;-47
2023/02/20 15:53:34;;;;;;;2.75;0.90;;;;;;;;;;5085010;28;20552;-47
2023/02/20 15:56:01;;;;;;;1.67;1.25;;;;;;;;;;5085329;28;20243;-48
2023/02/20 15:58:27;;;;;;;2.05;1.15;;;;;;;;;;5071061;28;20024;-46
2023/02/20 16:00:54;;;;;;;1.75;1.30;;;;;;;;;;5065082;28;20483;-46
2023/02/20 16:03:22;;;;;;;1.85;1.33;;;;;;;;;;5064571;28;20013;-49
2023/02/20 16:05:48;;;;;;;2.60;2.05;;;;;;;;;;5028450;28;20036;-47
2023/02/20 16:08:14;;;;;;;2.47;2.00;;;;;;;;;;5044464;28;20500;-47
2023/02/20 16:10:40;;;;;;;2.88;1.50;;;;;;;;;;5044847;28;20028;-47
2023/02/20 16:13:08;;;;;;;1.63;1.20;;;;;;;;;;5044972;28;20025;-47
2023/02/20 16:15:34;;;;;;;2.08;1.40;;;;;;;;;;5050657;28;20032;-48
2023/02/20 16:18:00;;;;;;;1.20;1.10;;;;;;;;;;5084355;28;20403;-47
2023/02/20 16:20:28;;;;;;;1.52;1.35;;;;;;;;;;5084515;28;20111;-47
2023/02/20 16:22:54;;;;;;;1.25;0.95;;;;;;;;;;5083759;28;20100;-47
2023/02/20 16:25:21;;;;;;;0.85;0.85;;;;;;;;;;5084289;28;20034;-48
2023/02/20 16:27:51;;;;;;;1.58;1.23;;;;;;;;;;5083699;28;20036;-47
2023/02/20 16:30:22;;;;;;;1.90;1.40;;;;;;;;;;5083193;28;20507;-47
2023/02/20 16:32:49;;;;;;;1.65;1.30;;;;;;;;;;5083328;28;20024;-48
2023/02/20 16:35:15;;;;;;;2.15;1.40;;;;;;;;;;5090295;28;20028;-49
2023/02/20 16:37:41;;;;;;;1.63;1.10;;;;;;;;;;5084776;28;20035;-47
2023/02/20 16:40:07;;;;;;;1.77;1.23;;;;;;;;;;5084389;28;20036;-49
2023/02/20 16:42:37;;;;;;;1.48;1.10;;;;;;;;;;5084096;28;20029;-46
2023/02/20 16:45:06;;;;;;;1.55;1.13;;;;;;;;;;5083877;28;20031;-46
2023/02/20 16:47:33;;;;;;;1.35;1.10;;;;;;;;;;5083588;28;20028;-47
2023/02/20 16:50:06;;;;;;;2.83;1.40;;;;;;;;;;5084179;28;20541;-47
2023/02/20 16:52:38;;;;;;;1.42;1.23;;;;;;;;;;5066111;28;20024;-46
2023/02/20 16:55:06;;;;;;;1.38;1.25;;;;;;;;;;5084720;28;20495;-48
2023/02/20 16:57:32;;;;;;;1.20;1.08;;;;;;;;;;5083683;28;20036;-46
2023/02/20 16:59:59;;;;;;;2.15;1.25;;;;;;;;;;5083522;28;20410;-47
2023/02/20 17:02:27;;;;;;;1.63;1.20;;;;;;;;;;5084134;28;20021;-46
2023/02/20 17:04:54;;;;;;;2.55;1.05;;;;;;;;;;5084154;28;20024;-47
2023/02/20 17:07:20;;;;;;;2.97;1.30;;;;;;;;;;5068670;28;20563;-46
2023/02/20 17:09:46;;;;;;;1.35;1.10;;;;;;;;;;5093310;28;20115;-47
2023/02/20 17:12:14;;;;;;;1.55;1.27;;;;;;;;;;5082692;28;20055;-50
2023/02/20 17:14:40;;;;;;;5.07;3.10;;;;;;;;;;5096115;28;20020;-47
2023/02/20 17:17:07;;;;;;;5.88;4.40;;;;;;;;;;5083569;28;20048;-49
2023/02/20 17:19:33;;;;;;;5.07;3.22;;;;;;;;;;5084553;28;20028;-48
2023/02/20 17:21:59;;;;;;;5.18;3.53;;;;;;;;;;5088307;28;20031;-47
2023/02/20 17:24:26;;;;;;;3.28;2.45;;;;;;;;;;5091704;28;20043;-46
2023/02/20 17:26:52;;;;;;;3.38;2.30;;;;;;;;;;5080440;28;20043;-47
2023/02/20 17:29:18;;;;;;;3.53;2.00;;;;;;;;;;5078830;28;20028;-47
2023/02/20 17:31:44;;;;;;;1.70;1.50;;;;;;;;;;5084531;28;20036;-48
2023/02/20 17:34:11;;;;;;;3.33;1.75;;;;;;;;;;5084250;28;20483;-46
2023/02/20 17:36:36;;;;;;;2.08;1.52;;;;;;;;;;5085313;28;20035;-46
2023/02/20 17:39:03;;;;;;;3.08;2.40;;;;;;;;;;5078628;28;20511;-46
2023/02/20 17:41:29;;;;;;;3.80;2.97;;;;;;;;;;5064650;28;20443;-47
2023/02/20 17:43:56;;;;;;;4.25;2.60;;;;;;;;;;5079275;28;20031;-45
2023/02/20 17:46:22;;;;;;;4.18;2.60;;;;;;;;;;5099206;28;20113;-45
2023/02/20 17:48:48;;;;;;;2.75;1.70;;;;;;;;;;5081039;28;20039;-46
2023/02/20 17:51:18;;;;;;;3.25;2.30;;;;;;;;;;5087184;28;20047;-46
2023/02/20 17:53:44;;;;;;;1.88;1.67;;;;;;;;;;5086311;28;20115;-46
2023/02/20 17:56:14;;;;;;;2.88;1.85;;;;;;;;;;5087453;28;20032;-45
2023/02/20 17:58:41;;;;;;;2.58;1.90;;;;;;;;;;5068533;28;20025;-46
2023/02/20 18:01:07;;;;;;;2.15;1.70;;;;;;;;;;5087245;28;20028;-47
2023/02/20 18:03:33;;;;;;;1.33;1.17;;;;;;;;;;5086818;28;20395;-46
2023/02/20 18:05:59;;;;;;;1.67;1.38;;;;;;;;;;5087441;28;20036;-46
2023/02/20 18:08:25;;;;;;;1.83;1.33;;;;;;;;;;5084623;28;20028;-46
2023/02/20 18:10:51;;;;;;;1.50;1.15;;;;;;;;;;5087108;28;20028;-47
2023/02/20 18:13:18;;;;;;;2.15;1.35;;;;;;;;;;5085664;28;20229;-46
2023/02/20 18:15:44;;;;;;;1.75;1.40;;;;;;;;;;5087060;28;20527;-46
2023/02/20 18:18:12;;;;;;;2.70;1.48;;;;;;;;;;5086612;28;20027;-46
2023/02/20 18:20:38;;;;;;;1.77;1.38;;;;;;;;;;5085947;28;20141;-47
2023/02/20 18:23:04;;;;;;;2.58;1.88;;;;;;;;;;5085809;28;20113;-46
2023/02/20 18:25:31;;;;;;;3.05;2.03;;;;;;;;;;5084068;28;20079;-46
2023/02/20 18:27:59;;;;;;;4.07;2.83;;;;;;;;;;5078006;28;20036;-46
2023/02/20 18:30:26;;;;;;;4.32;3.17;;;;;;;;;;5068394;28;20039;-46
2023/02/20 18:32:52;;;;;;;4.03;2.85;;;;;;;;;;5086329;28;20181;-49
2023/02/20 18:35:18;;;;;;;3.80;3.30;;;;;;;;;;5086218;28;20060;-45
2023/02/20 18:37:44;;;;;;;3.90;3.20;;;;;;;;;;5086115;28;20030;-45
2023/02/20 18:40:10;;;;;;;4.07;3.17;;;;;;;;;;5086396;28;20024;-47
2023/02/20 18:42:36;;;;;;;3.80;2.78;;;;;;;;;;5085857;28;20074;-49
2023/02/20 18:45:02;;;;;;;3.95;2.60;;;;;;;;;;5075122;28;20039;-46
2023/02/20 18:47:28;;;;;;;4.57;2.83;;;;;;;;;;5086210;28;20032;-47
2023/02/20 18:49:54;;;;;;;3.88;2.70;;;;;;;;;;5085461;28;20031;-46
2023/02/20 18:52:22;;;;;;;5.07;2.47;;;;;;;;;;5090353;27;20405;-45
2023/02/20 18:54:49;;;;;;;3.78;2.88;;;;;;;;;;5066214;28;20024;-47
2023/02/20 18:57:15;;;;;;;4.93;3.00;;;;;;;;;;5078081;28;20574;-46
2023/02/20 18:59:42;;;;;;;5.07;3.00;;;;;;;;;;5068493;28;20511;-46
2023/02/20 19:02:15;;;;;;;5.78;3.75;;;;;;;;;;5085225;28;20125;-46
2023/02/20 19:04:41;;;;;;;8.77;5.20;;;;;;;;;;5089072;28;20413;-45
2023/02/20 19:07:07;;;;;;;7.68;5.10;;;;;;;;;;5101544;28;20032;-45
2023/02/20 19:09:36;;;;;;;7.45;4.60;;;;;;;;;;5085667;28;20032;-47
2023/02/20 19:12:03;;;;;;;6.45;4.10;;;;;;;;;;5085356;28;20027;-45
2023/02/20 19:14:29;;;;;;;6.75;4.35;;;;;;;;;;5085452;28;20035;-44
2023/02/20 19:16:57;;;;;;;6.30;4.03;;;;;;;;;;5085511;28;20420;-45
2023/02/20 19:19:26;;;;;;;5.90;4.07;;;;;;;;;;5085002;28;20104;-46
2023/02/20 19:21:52;;;;;;;4.95;3.55;;;;;;;;;;5084721;28;20407;-46
2023/02/20 19:24:19;;;;;;;4.25;3.03;;;;;;;;;;5084645;28;20028;-45
2023/02/20 19:26:45;;;;;;;4.78;3.38;;;;;;;;;;5084157;28;20024;-46
2023/02/20 19:29:12;;;;;;;4.82;3.35;;;;;;;;;;5085558;28;20077;-45
2023/02/20 19:31:38;;;;;;;4.97;3.35;;;;;;;;;;5085255;28;20133;-47
2023/02/20 19:34:06;;;;;;;5.05;3.78;;;;;;;;;;5091806;28;20620;-45
2023/02/20 19:36:32;;;;;;;4.80;3.58;;;;;;;;;;5089946;28;20020;-45
2023/02/20 19:38:58;;;;;;;6.80;3.90;;;;;;;;;;5084896;28;20540;-45
2023/02/20 19:41:24;;;;;;;4.25;3.10;;;;;;;;;;5084826;28;20089;-48
2023/02/20 19:43:50;;;;;;;6.20;3.28;;;;;;;;;;5084993;28;20025;-45
2023/02/20 19:46:16;;;;;;;4.03;3.38;;;;;;;;;;5084580;28;20109;-46
2023/02/20 19:48:45;;;;;;;5.63;4.20;;;;;;;;;;5086259;28;20128;-45
2023/02/20 19:51:14;;;;;;;5.78;4.15;;;;;;;;;;5084653;28;20028;-44
2023/02/20 19:53:41;;;;;;;7.05;4.75;;;;;;;;;;5084879;28;20388;-45
2023/02/20 19:56:07;;;;;;;8.20;5.57;;;;;;;;;;5084827;28;20016;-46
2023/02/20 19:58:35;;;;;;;8.23;5.20;;;;;;;;;;5084519;28;20099;-45
2023/02/20 20:01:01;;;;;;;11.80;5.78;;;;;;;;;;5084974;28;20020;-45
2023/02/20 20:03:27;;;;;;;8.20;5.63;;;;;;;;;;5084650;28;20024;-44
2023/02/20 20:05:53;;;;;;;13.65;9.05;;;;;;;;;;5084381;28;20506;-46
2023/02/20 20:08:20;;;;;;;13.55;9.52;;;;;;;;;;5083056;28;20599;-46
2023/02/20 20:10:46;;;;;;;14.25;9.73;;;;;;;;;;5098992;28;20028;-47
2023/02/20 20:13:12;;;;;;;14.43;10.05;;;;;;;;;;5082758;28;20055;-46
2023/02/20 20:15:38;;;;;;;11.57;8.05;;;;;;;;;;5084278;28;20060;-48
2023/02/20 20:18:04;;;;;;;12.93;7.80;;;;;;;;;;5084492;28;20028;-45
2023/02/20 20:20:31;;;;;;;12.98;8.20;;;;;;;;;;5083794;28;20020;-46
2023/02/20 20:23:00;;;;;;;10.30;6.63;;;;;;;;;;5083865;28;20028;-47
2023/02/20 20:25:26;;;;;;;9.13;5.32;;;;;;;;;;5100843;28;20032;-46
2023/02/20 20:27:52;;;;;;;9.07;5.65;;;;;;;;;;5086350;28;20035;-45
2023/02/20 20:30:20;;;;;;;7.10;5.18;;;;;;;;;;5083663;28;20476;-47
2023/02/20 20:32:48;;;;;;;7.25;4.90;;;;;;;;;;5083806;28;20028;-47
2023/02/20 20:35:14;;;;;;;6.95;4.55;;;;;;;;;;5083933;28;20035;-45
2023/02/20 20:37:40;;;;;;;4.90;3.80;;;;;;;;;;5084058;28;20069;-45
2023/02/20 20:40:07;;;;;;;5.90;3.80;;;;;;;;;;5084117;28;20407;-46
2023/02/20 20:42:33;;;;;;;6.93;4.20;;;;;;;;;;5083393;28;20515;-47
2023/02/20 20:44:59;;;;;;;4.68;3.70;;;;;;;;;;5065537;28;20036;-46
2023/02/20 20:47:28;;;;;;;6.05;3.72;;;;;;;;;;5082939;28;20035;-44
2023/02/20 20:49:54;;;;;;;5.07;3.78;;;;;;;;;;5075490;28;20024;-44
2023/02/20 20:52:25;;;;;;;11.95;7.13;;;;;;;;;;5078269;28;20039;-46
2023/02/20 20:54:53;;;;;;;13.55;8.30;;;;;;;;;;5083779;28;20032;-46
2023/02/20 20:57:20;;;;;;;13.95;8.25;;;;;;;;;;5083359;28;20039;-45
2023/02/20 20:59:46;;;;;;;14.38;8.13;;;;;;;;;;5083755;28;20586;-45
2023/02/20 21:02:15;;;;;;;15.45;8.35;;;;;;;;;;5082808;28;20035;-44